createdAt,value
2023-01-13T00:00:36.469Z,1.10
2023-01-13T00:03:04.684Z,1.13
2023-01-13T00:05:35.218Z,1.00
2023-01-13T00:08:04.992Z,1.40
2023-01-13T00:10:33.124Z,0.93
2023-01-13T00:13:04.163Z,0.90
2023-01-13T00:15:32.425Z,1.10
2023-01-13T00:18:00.370Z,1.00
2023-01-13T00:20:28.443Z,1.00
2023-01-13T00:22:56.738Z,1.20
2023-01-13T00:25:24.644Z,1.20
2023-01-13T00:27:52.804Z,1.10
2023-01-13T00:30:22.201Z,1.53
2023-01-13T00:32:50.135Z,1.00
2023-01-13T00:35:18.183Z,0.90
2023-01-13T00:37:47.997Z,0.97
2023-01-13T00:40:15.931Z,1.10
2023-01-13T00:43:12.761Z,0.90
2023-01-13T00:45:42.175Z,0.80
2023-01-13T00:48:10.050Z,1.50
2023-01-13T00:50:38.056Z,1.10
2023-01-13T00:53:05.958Z,1.27
2023-01-13T00:55:33.931Z,1.20
2023-01-13T00:58:03.572Z,0.97
2023-01-13T01:00:31.898Z,1.00
2023-01-13T01:03:01.373Z,0.90
2023-01-13T01:05:29.278Z,1.17
2023-01-13T01:07:57.176Z,1.00
2023-01-13T01:10:25.095Z,0.87
2023-01-13T01:12:53.043Z,1.13
2023-01-13T01:15:20.934Z,0.83
2023-01-13T01:17:48.846Z,0.90
2023-01-13T01:20:18.508Z,0.80
2023-01-13T01:22:46.461Z,0.87
2023-01-13T01:25:14.396Z,0.90
2023-01-13T01:27:42.344Z,1.00
2023-01-13T01:30:11.572Z,0.77
2023-01-13T01:32:39.460Z,0.70
2023-01-13T01:35:11.104Z,0.80
2023-01-13T01:37:40.541Z,0.93
2023-01-13T01:40:09.551Z,0.70
2023-01-13T01:42:54.705Z,0.60
2023-01-13T01:45:23.516Z,0.80
2023-01-13T01:47:55.230Z,0.70
2023-01-13T01:50:24.204Z,0.60
2023-01-13T01:52:57.754Z,0.83
2023-01-13T01:55:30.444Z,0.80
2023-01-13T01:58:03.211Z,0.77
2023-01-13T02:00:31.321Z,0.80
2023-01-13T02:03:01.259Z,0.70
2023-01-13T02:05:29.233Z,0.67
2023-01-13T02:08:00.947Z,0.70
2023-01-13T02:10:30.677Z,0.90
2023-01-13T02:13:02.914Z,0.60
2023-01-13T02:15:39.572Z,0.70
2023-01-13T02:18:21.308Z,0.50
2023-01-13T02:21:36.621Z,0.60
2023-01-13T02:24:48.857Z,0.70
2023-01-13T02:27:44.387Z,0.70
2023-01-13T02:30:47.890Z,0.53
2023-01-13T02:33:28.115Z,1.13
2023-01-13T02:36:02.718Z,0.70
2023-01-13T02:38:35.960Z,0.67
2023-01-13T02:41:22.448Z,0.60
2023-01-13T02:44:10.808Z,0.70
2023-01-13T02:46:49.681Z,0.60
2023-01-13T02:49:24.895Z,0.57
2023-01-13T02:51:55.963Z,0.57
2023-01-13T02:54:28.344Z,0.50
2023-01-13T02:56:58.883Z,0.40
2023-01-13T02:59:27.833Z,0.50
2023-01-13T03:01:58.523Z,0.50
2023-01-13T03:04:49.665Z,0.50
2023-01-13T03:07:49.998Z,0.70
2023-01-13T03:10:29.665Z,0.40
2023-01-13T03:13:08.524Z,0.40
2023-01-13T03:15:47.468Z,0.40
2023-01-13T03:18:33.047Z,0.53
2023-01-13T03:21:08.615Z,0.40
2023-01-13T03:23:42.283Z,0.60
2023-01-13T03:26:21.228Z,0.40
2023-01-13T03:28:57.550Z,0.50
2023-01-13T03:31:32.460Z,0.57
2023-01-13T03:34:06.464Z,0.50
2023-01-13T03:36:36.902Z,0.50
2023-01-13T03:39:09.880Z,0.50
2023-01-13T03:41:43.136Z,0.40
2023-01-13T03:44:22.136Z,0.70
2023-01-13T03:46:59.531Z,0.40
2023-01-13T03:49:35.678Z,0.67
2023-01-13T03:52:08.427Z,0.60
2023-01-13T03:54:43.697Z,0.50
2023-01-13T03:57:15.671Z,0.50
2023-01-13T03:59:48.390Z,0.67
2023-01-13T04:02:22.763Z,0.47
2023-01-13T04:04:57.815Z,0.60
2023-01-13T04:07:35.083Z,0.30
2023-01-13T04:10:07.693Z,0.50
2023-01-13T04:12:53.462Z,0.50
2023-01-13T04:15:23.934Z,0.70
2023-01-13T04:17:52.739Z,0.57
2023-01-13T04:20:22.322Z,0.40
2023-01-13T04:22:50.223Z,0.30
2023-01-13T04:25:18.148Z,0.47
2023-01-13T04:27:46.026Z,0.33
2023-01-13T04:30:14.413Z,0.50
2023-01-13T04:32:42.382Z,0.43
2023-01-13T04:35:10.607Z,0.37
2023-01-13T04:37:42.369Z,0.50
2023-01-13T04:40:11.332Z,0.40
2023-01-13T04:42:39.344Z,0.30
2023-01-13T04:45:08.402Z,0.40
2023-01-13T04:47:37.095Z,0.30
2023-01-13T04:50:05.896Z,0.40
2023-01-13T04:52:33.868Z,0.60
2023-01-13T04:55:03.168Z,0.30
2023-01-13T04:57:33.252Z,0.50
2023-01-13T05:00:01.275Z,0.60
2023-01-13T05:02:29.473Z,0.40
2023-01-13T05:04:57.775Z,0.50
2023-01-13T05:07:25.770Z,1.00
2023-01-13T05:09:53.678Z,0.60
2023-01-13T05:12:40.379Z,0.50
2023-01-13T05:15:26.664Z,0.50
2023-01-13T05:17:54.641Z,0.53
2023-01-13T05:20:22.565Z,0.80
2023-01-13T05:23:07.793Z,0.60
2023-01-13T05:25:38.963Z,0.60
2023-01-13T05:28:08.701Z,0.60
2023-01-13T05:30:42.241Z,0.90
2023-01-13T05:33:10.313Z,0.60
2023-01-13T05:35:39.752Z,0.70
2023-01-13T05:38:07.772Z,0.80
2023-01-13T05:40:53.439Z,0.67
2023-01-13T05:43:25.926Z,0.90
2023-01-13T05:45:58.456Z,0.60
2023-01-13T05:48:27.704Z,0.60
2023-01-13T05:50:56.671Z,0.70
2023-01-13T05:53:25.229Z,0.80
2023-01-13T05:55:53.925Z,0.40
2023-01-13T05:58:25.154Z,0.50
2023-01-13T06:00:53.536Z,0.50
2023-01-13T06:03:21.735Z,0.60
2023-01-13T06:05:51.361Z,0.70
2023-01-13T06:08:19.759Z,0.83
2023-01-13T06:10:47.671Z,0.90
2023-01-13T06:13:15.636Z,1.13
2023-01-13T06:15:45.024Z,1.20
2023-01-13T06:18:12.975Z,1.43
2023-01-13T06:20:40.927Z,1.80
2023-01-13T06:23:10.790Z,1.50
2023-01-13T06:25:45.558Z,1.10
2023-01-13T06:28:13.637Z,1.20
2023-01-13T06:30:47.236Z,0.77
2023-01-13T06:33:18.055Z,0.97
2023-01-13T06:35:53.921Z,0.60
2023-01-13T06:38:27.732Z,0.70
2023-01-13T06:40:56.339Z,0.60
2023-01-13T06:43:23.436Z,0.77
2023-01-13T06:45:54.961Z,0.87
2023-01-13T06:48:25.610Z,0.77
2023-01-13T06:50:53.654Z,0.60
2023-01-13T06:53:21.673Z,1.07
2023-01-13T06:55:49.673Z,1.00
2023-01-13T06:58:17.815Z,0.67
2023-01-13T07:00:49.643Z,0.90
2023-01-13T07:03:20.067Z,0.90
2023-01-13T07:05:53.813Z,1.03
2023-01-13T07:08:22.415Z,1.07
2023-01-13T07:10:51.325Z,2.37
2023-01-13T07:13:37.345Z,1.10
2023-01-13T07:16:07.225Z,1.33
2023-01-13T07:18:37.422Z,1.20
2023-01-13T07:21:07.226Z,1.30
2023-01-13T07:23:36.617Z,1.70
2023-01-13T07:26:05.874Z,1.57
2023-01-13T07:28:34.685Z,1.43
2023-01-13T07:31:05.392Z,1.70
2023-01-13T07:33:33.869Z,1.63
2023-01-13T07:36:05.330Z,1.50
2023-01-13T07:38:34.374Z,1.80
2023-01-13T07:41:24.777Z,2.57
2023-01-13T07:43:52.523Z,2.30
2023-01-13T07:46:20.728Z,2.37
2023-01-13T07:48:49.786Z,1.97
2023-01-13T07:51:19.123Z,2.70
2023-01-13T07:53:46.989Z,2.50
2023-01-13T07:56:15.107Z,2.10
2023-01-13T07:58:44.403Z,2.80
2023-01-13T08:01:14.286Z,2.63
2023-01-13T08:03:42.551Z,2.83
2023-01-13T08:06:11.739Z,2.57
2023-01-13T08:08:41.225Z,2.80
2023-01-13T08:11:10.235Z,2.50
2023-01-13T08:13:38.202Z,2.50
2023-01-13T08:16:08.464Z,1.87
2023-01-13T08:18:37.603Z,1.87
2023-01-13T08:21:07.886Z,1.63
2023-01-13T08:23:36.661Z,2.10
2023-01-13T08:26:08.347Z,2.57
2023-01-13T08:28:37.267Z,2.50
2023-01-13T08:31:09.902Z,2.00
2023-01-13T08:33:40.789Z,1.77
2023-01-13T08:36:11.030Z,1.87
2023-01-13T08:38:41.172Z,1.80
2023-01-13T08:41:15.983Z,1.70
2023-01-13T08:43:44.581Z,1.53
2023-01-13T08:46:14.660Z,1.90
2023-01-13T08:48:42.584Z,2.17
2023-01-13T08:51:10.827Z,2.47
2023-01-13T08:53:38.828Z,1.70
2023-01-13T08:56:10.903Z,2.20
2023-01-13T08:58:40.889Z,1.80
2023-01-13T09:01:10.084Z,2.60
2023-01-13T09:03:39.083Z,2.60
2023-01-13T09:06:07.455Z,2.43
2023-01-13T09:08:35.402Z,2.10
2023-01-13T09:11:26.097Z,2.37
2023-01-13T09:13:54.469Z,2.30
2023-01-13T09:16:22.401Z,2.50
2023-01-13T09:18:50.331Z,1.63
2023-01-13T09:21:22.725Z,1.67
2023-01-13T09:23:50.705Z,1.33
2023-01-13T09:26:22.921Z,1.30
2023-01-13T09:28:50.973Z,1.50
2023-01-13T09:31:20.629Z,1.53
2023-01-13T09:34:06.214Z,2.17
2023-01-13T09:36:34.162Z,1.70
2023-01-13T09:39:02.312Z,1.73
2023-01-13T09:41:51.862Z,1.80
2023-01-13T09:44:26.382Z,1.37
2023-01-13T09:47:01.189Z,1.47
2023-01-13T09:49:35.101Z,1.40
2023-01-13T09:52:08.728Z,1.50
2023-01-13T09:54:42.200Z,1.50
2023-01-13T09:57:11.764Z,1.57
2023-01-13T09:59:39.960Z,1.70
2023-01-13T10:02:32.919Z,1.43
2023-01-13T10:05:11.200Z,1.80
2023-01-13T10:07:44.402Z,1.80
2023-01-13T10:10:17.986Z,1.73
2023-01-13T10:13:06.017Z,1.50
2023-01-13T10:15:34.585Z,1.70
2023-01-13T10:18:13.891Z,1.70
2023-01-13T10:20:53.369Z,2.10
2023-01-13T10:23:52.408Z,1.53
2023-01-13T10:26:35.280Z,1.60
2023-01-13T10:29:03.281Z,1.80
2023-01-13T10:31:31.198Z,1.80
2023-01-13T10:34:01.867Z,2.00
2023-01-13T10:36:29.847Z,1.97
2023-01-13T10:39:09.152Z,1.40
2023-01-13T10:41:37.205Z,1.93
2023-01-13T10:44:09.609Z,1.83
2023-01-13T10:46:52.843Z,2.13
2023-01-13T10:49:32.676Z,1.83
2023-01-13T10:52:02.141Z,1.40
2023-01-13T10:54:33.019Z,1.47
2023-01-13T10:57:16.122Z,1.33
2023-01-13T10:59:44.245Z,1.80
2023-01-13T11:02:26.229Z,1.90
2023-01-13T11:05:10.545Z,1.40
2023-01-13T11:07:41.402Z,1.53
2023-01-13T11:10:20.722Z,1.33
2023-01-13T11:12:59.288Z,1.83
2023-01-13T11:15:39.962Z,1.83
2023-01-13T11:18:16.259Z,1.73
2023-01-13T11:20:48.590Z,1.50
2023-01-13T11:23:22.923Z,2.03
2023-01-13T11:25:55.903Z,1.73
2023-01-13T11:28:38.522Z,1.70
2023-01-13T11:31:13.055Z,1.83
2023-01-13T11:33:46.256Z,2.00
2023-01-13T11:36:20.674Z,1.70
2023-01-13T11:38:52.236Z,2.07
2023-01-13T11:41:33.363Z,1.77
2023-01-13T11:44:11.136Z,2.27
2023-01-13T11:46:41.249Z,1.90
2023-01-13T11:49:15.624Z,1.83
2023-01-13T11:51:51.008Z,1.87
2023-01-13T11:54:48.793Z,2.10
2023-01-13T11:57:48.226Z,1.80
2023-01-13T12:00:28.374Z,2.00
2023-01-13T12:03:11.143Z,1.77
2023-01-13T12:05:45.041Z,1.50
2023-01-13T12:08:19.774Z,1.50
2023-01-13T12:11:02.383Z,2.13
2023-01-13T12:13:40.366Z,1.87
2023-01-13T12:16:17.483Z,2.00
2023-01-13T12:19:28.129Z,1.93
2023-01-13T12:22:02.226Z,2.00
2023-01-13T12:24:36.196Z,2.00
2023-01-13T12:27:11.278Z,1.77
2023-01-13T12:29:42.489Z,2.07
2023-01-13T12:32:16.075Z,1.63
2023-01-13T12:34:54.111Z,1.60
2023-01-13T12:37:27.270Z,2.13
2023-01-13T12:40:29.727Z,2.17
2023-01-13T12:43:30.002Z,2.60
2023-01-13T12:46:31.146Z,2.10
2023-01-13T12:49:07.576Z,2.20
2023-01-13T12:51:40.533Z,1.67
2023-01-13T12:54:55.127Z,2.13
2023-01-13T12:57:27.598Z,1.93
2023-01-13T13:00:14.298Z,1.80
2023-01-13T13:02:43.649Z,1.93
2023-01-13T13:05:44.933Z,2.00
2023-01-13T13:08:21.741Z,2.23
2023-01-13T13:11:35.886Z,2.00
2023-01-13T13:14:05.083Z,1.63
2023-01-13T13:16:56.975Z,2.53
2023-01-13T13:19:48.342Z,2.40
2023-01-13T13:22:45.710Z,1.80
2023-01-13T13:25:28.057Z,2.00
2023-01-13T13:28:18.667Z,2.00
2023-01-13T13:31:18.237Z,1.87
2023-01-13T13:34:02.633Z,1.93
2023-01-13T13:36:51.404Z,2.43
2023-01-13T13:39:40.718Z,1.90
2023-01-13T13:42:32.272Z,1.53
2023-01-13T13:45:21.429Z,1.90
2023-01-13T13:47:49.449Z,1.83
2023-01-13T13:50:20.896Z,1.80
2023-01-13T13:52:55.191Z,2.17
2023-01-13T13:55:25.057Z,2.60
2023-01-13T13:57:57.307Z,2.13
2023-01-13T14:00:29.608Z,1.63
2023-01-13T14:03:00.797Z,2.03
2023-01-13T14:05:30.870Z,1.90
2023-01-13T14:08:03.988Z,1.97
2023-01-13T14:10:34.367Z,1.93
2023-01-13T14:13:03.976Z,2.10
2023-01-13T14:15:36.673Z,2.73
2023-01-13T14:18:12.319Z,1.87
2023-01-13T14:20:40.964Z,2.23
2023-01-13T14:23:18.823Z,2.00
2023-01-13T14:25:51.882Z,1.90
2023-01-13T14:28:25.079Z,1.87
2023-01-13T14:30:55.142Z,2.30
2023-01-13T14:33:33.971Z,1.90
2023-01-13T14:36:16.504Z,1.80
2023-01-13T14:38:47.259Z,1.67
2023-01-13T14:41:35.264Z,2.10
2023-01-13T14:44:14.325Z,2.43
2023-01-13T14:46:45.924Z,2.07
2023-01-13T14:49:24.843Z,1.80
2023-01-13T14:51:53.150Z,1.80
2023-01-13T14:54:43.411Z,1.80
2023-01-13T14:57:27.416Z,1.90
2023-01-13T15:00:18.853Z,1.90
2023-01-13T15:02:49.251Z,2.43
2023-01-13T15:05:42.682Z,2.13
2023-01-13T15:08:30.302Z,2.10
2023-01-13T15:11:00.846Z,1.80
2023-01-13T15:13:47.192Z,1.73
2023-01-13T15:16:25.035Z,2.53
2023-01-13T15:18:56.446Z,3.80
2023-01-13T15:21:27.559Z,13.97
2023-01-13T15:23:55.567Z,2.77
2023-01-13T15:26:25.900Z,2.20
2023-01-13T15:28:55.643Z,2.30
2023-01-13T15:31:24.847Z,2.47
2023-01-13T15:33:54.651Z,2.03
2023-01-13T15:36:29.162Z,3.70
2023-01-13T15:38:57.962Z,1.90
2023-01-13T15:41:45.885Z,1.90
2023-01-13T15:44:32.434Z,1.60
2023-01-13T15:47:02.412Z,1.73
2023-01-13T15:49:36.577Z,2.30
2023-01-13T15:52:05.447Z,1.70
2023-01-13T15:54:33.369Z,2.00
2023-01-13T15:57:01.896Z,1.87
2023-01-13T15:59:29.911Z,1.63
2023-01-13T16:02:00.593Z,2.07
2023-01-13T16:04:28.858Z,2.00
2023-01-13T16:07:01.063Z,2.10
2023-01-13T16:09:29.065Z,2.07
2023-01-13T16:11:58.659Z,2.20
2023-01-13T16:14:26.580Z,2.20
2023-01-13T16:16:54.505Z,2.53
2023-01-13T16:19:22.463Z,1.90
2023-01-13T16:21:50.364Z,2.33
2023-01-13T16:24:20.043Z,2.50
2023-01-13T16:26:47.936Z,1.70
2023-01-13T16:29:15.844Z,2.27
2023-01-13T16:31:44.139Z,2.20
2023-01-13T16:34:12.064Z,2.47
2023-01-13T16:36:40.041Z,2.03
2023-01-13T16:39:24.448Z,1.90
2023-01-13T16:41:52.648Z,2.37
2023-01-13T16:44:20.718Z,2.00
2023-01-13T16:46:48.668Z,2.80
2023-01-13T16:49:18.191Z,2.27
2023-01-13T16:51:46.450Z,2.40
2023-01-13T16:54:14.356Z,2.20
2023-01-13T16:56:44.420Z,2.17
2023-01-13T16:59:14.924Z,2.87
2023-01-13T17:01:44.906Z,2.43
2023-01-13T17:04:17.460Z,2.03
2023-01-13T17:06:51.470Z,2.00
2023-01-13T17:09:21.588Z,2.10
2023-01-13T17:11:51.239Z,2.13
2023-01-13T17:14:22.912Z,2.13
2023-01-13T17:16:52.537Z,1.93
2023-01-13T17:19:21.842Z,1.87
2023-01-13T17:21:51.518Z,2.00
2023-01-13T17:24:20.449Z,1.83
2023-01-13T17:26:51.628Z,1.97
2023-01-13T17:29:22.139Z,1.90
2023-01-13T17:31:50.253Z,2.23
2023-01-13T17:34:18.318Z,1.87
2023-01-13T17:36:46.344Z,1.80
2023-01-13T17:39:18.042Z,2.37
2023-01-13T17:41:46.338Z,2.43
2023-01-13T17:44:16.422Z,1.87
2023-01-13T17:46:44.757Z,2.07
2023-01-13T17:49:13.301Z,2.63
2023-01-13T17:51:41.407Z,1.83
2023-01-13T17:54:11.998Z,2.10
2023-01-13T17:56:40.353Z,2.20
2023-01-13T17:59:10.374Z,2.50
2023-01-13T18:01:40.157Z,2.37
2023-01-13T18:04:08.580Z,1.50
2023-01-13T18:06:38.796Z,1.60
2023-01-13T18:09:06.714Z,2.03
2023-01-13T18:11:34.781Z,3.13
2023-01-13T18:14:02.763Z,2.10
2023-01-13T18:16:33.816Z,2.10
2023-01-13T18:19:29.092Z,2.30
2023-01-13T18:22:14.447Z,2.40
2023-01-13T18:25:01.838Z,2.33
2023-01-13T18:27:34.154Z,2.90
2023-01-13T18:30:02.769Z,2.20
2023-01-13T18:32:33.512Z,2.70
2023-01-13T18:35:06.460Z,2.60
2023-01-13T18:37:40.247Z,2.10
2023-01-13T18:40:10.482Z,2.60
2023-01-13T18:42:55.398Z,2.80
2023-01-13T18:45:25.729Z,2.40
2023-01-13T18:47:54.888Z,2.50
2023-01-13T18:50:24.661Z,2.07
2023-01-13T18:52:54.712Z,2.80
2023-01-13T18:55:22.690Z,2.77
2023-01-13T18:57:55.156Z,2.17
2023-01-13T19:00:24.933Z,2.80
2023-01-13T19:05:38.245Z,3.20
2023-01-13T19:08:06.655Z,2.07
2023-01-13T19:10:39.884Z,2.47
2023-01-13T19:13:07.824Z,2.57
2023-01-13T19:15:37.633Z,2.60
2023-01-13T19:18:05.834Z,2.00
2023-01-13T19:20:35.128Z,2.00
2023-01-13T19:23:05.885Z,2.87
2023-01-13T19:25:40.240Z,2.80
2023-01-13T19:28:12.624Z,3.40
2023-01-13T19:30:41.135Z,2.43
2023-01-13T19:33:09.063Z,2.13
2023-01-13T19:35:39.566Z,2.43
2023-01-13T19:38:10.706Z,2.43
2023-01-13T19:40:38.633Z,3.20
2023-01-13T19:43:24.239Z,2.70
2023-01-13T19:45:52.269Z,2.90
2023-01-13T19:48:25.620Z,2.33
2023-01-13T19:50:55.061Z,3.00
2023-01-13T19:53:23.143Z,2.57
2023-01-13T19:55:51.790Z,2.37
2023-01-13T19:58:25.958Z,2.40
2023-01-13T20:00:54.911Z,2.00
2023-01-13T20:03:26.133Z,2.70
2023-01-13T20:06:05.237Z,2.50
2023-01-13T20:08:33.463Z,2.37
2023-01-13T20:11:15.450Z,1.87
2023-01-13T20:13:43.494Z,2.43
2023-01-13T20:16:11.659Z,2.50
2023-01-13T20:18:39.822Z,2.57
2023-01-13T20:21:09.669Z,2.20
2023-01-13T20:23:40.906Z,2.33
2023-01-13T20:26:09.575Z,2.40
2023-01-13T20:28:40.378Z,2.93
2023-01-13T20:31:09.669Z,2.10
2023-01-13T20:33:38.624Z,2.40
2023-01-13T20:36:07.858Z,2.87
2023-01-13T20:38:38.491Z,3.17
2023-01-13T20:41:22.092Z,2.47
2023-01-13T20:43:50.694Z,2.37
2023-01-13T20:46:18.777Z,2.60
2023-01-13T20:48:46.955Z,2.20
2023-01-13T20:51:15.002Z,2.20
2023-01-13T20:53:44.443Z,2.50
2023-01-13T20:56:15.607Z,2.67
2023-01-13T20:58:44.072Z,3.00
2023-01-13T21:01:12.141Z,3.07
2023-01-13T21:03:40.147Z,2.60
2023-01-13T21:06:08.666Z,2.47
2023-01-13T21:08:36.590Z,3.00
2023-01-13T21:11:10.456Z,3.07
2023-01-13T21:13:56.047Z,2.60
2023-01-13T21:16:24.151Z,2.33
2023-01-13T21:19:10.641Z,2.63
2023-01-13T21:21:38.930Z,3.97
2023-01-13T21:24:07.146Z,3.43
2023-01-13T21:26:36.726Z,3.20
2023-01-13T21:29:06.680Z,3.03
2023-01-13T21:31:34.905Z,2.83
2023-01-13T21:34:02.841Z,2.40
2023-01-13T21:36:30.942Z,2.80
2023-01-13T21:39:00.728Z,2.93
2023-01-13T21:41:46.482Z,2.47
2023-01-13T21:44:35.571Z,2.37
2023-01-13T21:47:20.932Z,2.47
2023-01-13T21:49:48.852Z,3.23
2023-01-13T21:52:17.067Z,2.70
2023-01-13T21:55:02.891Z,2.40
2023-01-13T21:57:30.842Z,2.93
2023-01-13T22:00:00.173Z,3.80
2023-01-13T22:02:31.938Z,2.80
2023-01-13T22:05:00.815Z,2.83
2023-01-13T22:07:29.346Z,2.77
2023-01-13T22:09:57.377Z,2.90
2023-01-13T22:12:27.931Z,3.10
2023-01-13T22:14:56.491Z,2.40
2023-01-13T22:17:28.477Z,2.77
2023-01-13T22:19:57.294Z,3.27
2023-01-13T22:22:26.746Z,3.23
2023-01-13T22:24:55.404Z,2.87
2023-01-13T22:27:24.901Z,2.77
2023-01-13T22:29:53.843Z,3.63
2023-01-13T22:32:22.703Z,4.63
2023-01-13T22:34:52.132Z,5.33
2023-01-13T22:37:20.151Z,3.70
2023-01-13T22:39:48.194Z,2.90
2023-01-13T22:42:16.096Z,3.47
2023-01-13T22:44:44.580Z,2.90
2023-01-13T22:47:12.631Z,2.93
2023-01-13T22:49:42.019Z,2.97
2023-01-13T22:52:11.418Z,2.57
2023-01-13T22:54:39.463Z,3.70
2023-01-13T22:57:07.529Z,2.60
2023-01-13T22:59:35.482Z,3.00
2023-01-13T23:02:03.433Z,3.27
2023-01-13T23:04:31.436Z,2.80
2023-01-13T23:07:00.124Z,3.10
2023-01-13T23:09:30.808Z,2.97
2023-01-13T23:11:59.378Z,2.67
2023-01-13T23:14:30.582Z,2.87
2023-01-13T23:16:58.575Z,3.20
2023-01-13T23:19:28.708Z,2.43
2023-01-13T23:21:56.732Z,3.03
2023-01-13T23:24:25.881Z,3.50
2023-01-13T23:26:55.201Z,2.83
2023-01-13T23:29:26.116Z,3.27
2023-01-13T23:31:54.078Z,3.13
2023-01-13T23:34:22.119Z,3.27
2023-01-13T23:36:50.123Z,3.17
2023-01-13T23:39:18.052Z,3.50
2023-01-13T23:41:46.075Z,3.83
2023-01-13T23:44:18.213Z,2.77
2023-01-13T23:46:49.165Z,2.97
2023-01-13T23:49:23.590Z,3.40
2023-01-13T23:51:53.852Z,4.43
2023-01-13T23:54:23.454Z,2.97
2023-01-13T23:56:53.201Z,3.53
2023-01-13T23:59:22.696Z,3.20
